Time;durP1;ratioP1;P1;durP2;ratioP2;P2;SDS_P1;SDS_P2;PMS_P1;PMS_P2;Temp;Humidity;BMP_temperature;BMP_pressure;BME280_temperature;BME280_humidity;BME280_pressure;Samples;Min_cycle;Max_cycle;Signal;HPM_P1;HPM_P2
2024/04/25 00:00:57;;;;;;;6.60;4.20;;;;;;;5.52;76.10;97618.97;5384777;26;20478;-79
2024/04/25 00:03:22;;;;;;;4.45;3.45;;;;;;;5.45;76.60;97621.00;5376756;26;20023;-78
2024/04/25 00:05:47;;;;;;;4.68;4.20;;;;;;;5.35;76.58;97612.94;5385181;26;20550;-79
2024/04/25 00:08:13;;;;;;;7.57;4.43;;;;;;;5.42;76.33;97624.91;5373162;26;19996;-79
2024/04/25 00:10:40;;;;;;;5.38;4.15;;;;;;;5.19;76.60;97609.28;5371753;26;20011;-78
2024/04/25 00:13:05;;;;;;;4.60;4.13;;;;;;;5.28;75.72;97607.81;5374578;26;19996;-79
2024/04/25 00:15:31;;;;;;;7.13;4.43;;;;;;;5.48;75.91;97626.59;5366260;26;20059;-79
2024/04/25 00:17:56;;;;;;;6.53;4.60;;;;;;;5.26;76.85;97631.06;5381022;26;20047;-79
2024/04/25 00:20:22;;;;;;;4.55;4.03;;;;;;;5.49;76.03;97635.31;5372436;26;20040;-79
2024/04/25 00:22:47;;;;;;;6.47;4.03;;;;;;;5.31;76.34;97608.13;5378239;26;19996;-79
2024/04/25 00:25:12;;;;;;;5.70;4.03;;;;;;;5.40;76.52;97623.56;5378844;26;19996;-79
2024/04/25 00:27:38;;;;;;;5.63;3.72;;;;;;;5.47;76.88;97634.78;5378588;26;20011;-79
2024/04/25 00:30:04;;;;;;;7.00;4.80;;;;;;;5.49;75.90;97635.31;5378111;26;19996;-80
2024/04/25 00:32:29;;;;;;;4.45;3.40;;;;;;;5.36;76.51;97625.91;5378803;26;20702;-78
2024/04/25 00:34:57;;;;;;;5.30;4.63;;;;;;;5.59;76.47;97620.38;5405050;26;20007;-79
2024/04/25 00:37:23;;;;;;;7.93;5.18;;;;;;;5.35;76.73;97626.16;5363774;26;20829;-78
2024/04/25 00:39:50;;;;;;;7.70;3.75;;;;;;;5.41;76.87;97622.53;5384501;26;20021;-79
2024/04/25 00:42:20;;;;;;;7.05;4.65;;;;;;;5.50;76.64;97618.41;5379604;26;20016;-79
2024/04/25 00:44:46;;;;;;;6.65;4.15;;;;;;;5.54;76.23;97612.38;5376250;26;19996;-80
2024/04/25 00:47:15;;;;;;;6.20;4.95;;;;;;;5.53;76.05;97625.84;5377426;26;20020;-78
2024/04/25 00:49:41;;;;;;;5.53;4.45;;;;;;;5.54;76.69;97624.81;5378095;26;19992;-79
2024/04/25 00:52:08;;;;;;;6.07;4.95;;;;;;;5.62;75.98;97619.88;5376513;26;20047;-79
2024/04/25 00:54:34;;;;;;;7.32;4.95;;;;;;;5.49;76.05;97620.25;5370868;26;20036;-78
2024/04/25 00:57:02;;;;;;;7.70;5.43;;;;;;;5.40;76.60;97619.06;5419117;26;20352;-79
2024/04/25 00:59:30;;;;;;;9.05;4.90;;;;;;;5.35;77.14;97611.09;5380651;26;19996;-80
2024/04/25 01:02:00;;;;;;;6.22;5.35;;;;;;;5.49;76.66;97603.56;5380604;26;20008;-78
2024/04/25 01:04:26;;;;;;;9.18;5.50;;;;;;;5.40;77.08;97605.84;5377656;26;19997;-78
2024/04/25 01:06:56;;;;;;;7.85;6.13;;;;;;;5.37;77.50;97613.50;5377061;26;20010;-79
2024/04/25 01:09:21;;;;;;;10.73;5.88;;;;;;;5.45;77.21;97613.06;5381446;26;20040;-77
2024/04/25 01:11:46;;;;;;;10.15;5.35;;;;;;;5.47;77.12;97606.47;5379048;26;20057;-78
2024/04/25 01:14:12;;;;;;;11.95;6.70;;;;;;;5.11;78.84;97621.06;5379635;26;20007;-80
2024/04/25 01:16:37;;;;;;;8.68;6.03;;;;;;;5.22;78.25;97619.38;5384847;26;20094;-79
2024/04/25 01:19:02;;;;;;;7.50;6.05;;;;;;;5.42;77.58;97610.91;5374331;26;20001;-79
2024/04/25 01:21:28;;;;;;;12.25;6.85;;;;;;;5.28;76.90;97599.88;5386098;26;20016;-78
2024/04/25 01:23:56;;;;;;;10.32;6.43;;;;;;;5.48;76.72;97613.38;5376264;26;19996;-79
2024/04/25 01:26:22;;;;;;;9.20;6.63;;;;;;;5.44;76.71;97606.94;5380471;26;20007;-79
2024/04/25 01:28:48;;;;;;;8.90;6.25;;;;;;;5.45;76.36;97592.69;5377801;26;20000;-79
2024/04/25 01:31:14;;;;;;;9.07;7.78;;;;;;;5.17;77.81;97616.66;5370257;26;19992;-79
2024/04/25 01:33:39;;;;;;;8.68;6.72;;;;;;;5.30;77.45;97601.25;5376674;26;20352;-79
2024/04/25 01:36:05;;;;;;;9.20;6.30;;;;;;;5.29;77.94;97615.50;5377371;26;20008;-79
2024/04/25 01:38:30;;;;;;;15.35;8.43;;;;;;;5.13;77.91;97607.63;5386386;26;20001;-79
2024/04/25 01:40:56;;;;;;;8.82;7.00;;;;;;;5.55;77.00;97607.91;5381115;26;19997;-79
2024/04/25 01:43:21;;;;;;;11.13;6.78;;;;;;;5.40;77.27;97615.63;5384311;26;20464;-79
2024/04/25 01:45:46;;;;;;;12.90;8.45;;;;;;;5.11;78.48;97607.84;5385232;26;20031;-79
2024/04/25 01:48:12;;;;;;;16.73;7.47;;;;;;;4.96;78.43;97591.78;5378418;26;20015;-78
2024/04/25 01:50:37;;;;;;;11.57;7.88;;;;;;;5.07;79.62;97612.03;5372980;26;19996;-79
2024/04/25 01:53:03;;;;;;;10.27;7.32;;;;;;;4.98;79.00;97605.53;5375470;26;20008;-79
2024/04/25 01:55:28;;;;;;;10.27;6.55;;;;;;;5.20;77.92;97585.22;5376684;26;20067;-79
2024/04/25 01:57:54;;;;;;;12.60;6.35;;;;;;;5.27;77.86;97598.28;5367765;26;20558;-79
2024/04/25 02:00:19;;;;;;;18.63;8.02;;;;;;;5.41;77.42;97590.78;5378669;26;19996;-80
2024/04/25 02:02:44;;;;;;;8.00;6.13;;;;;;;5.45;77.28;97584.75;5377285;26;20024;-79
2024/04/25 02:05:10;;;;;;;10.35;6.82;;;;;;;5.33;77.88;97582.22;5376073;26;20023;-78
2024/04/25 02:07:35;;;;;;;12.52;7.07;;;;;;;5.16;77.89;97589.41;5376949;26;19996;-78
2024/04/25 02:10:01;;;;;;;9.40;6.30;;;;;;;5.26;78.17;97591.41;5376348;26;19997;-79
2024/04/25 02:12:27;;;;;;;9.00;6.88;;;;;;;5.00;78.72;97582.31;5374154;26;20000;-78
2024/04/25 02:14:52;;;;;;;11.98;7.65;;;;;;;5.24;78.52;97601.44;5375258;26;20116;-78
2024/04/25 02:17:18;;;;;;;7.85;6.30;;;;;;;5.21;78.01;97589.50;5372208;26;20317;-78
2024/04/25 02:19:43;;;;;;;9.43;7.38;;;;;;;5.12;77.49;97595.44;5373687;26;19997;-78
2024/04/25 02:27:36;;;;;;;8.52;6.45;;;;;;;4.88;78.89;97600.13;5376916;26;20011;-78
2024/04/25 02:30:02;;;;;;;11.48;6.72;;;;;;;4.95;78.34;97576.97;5376799;26;20000;-79
2024/04/25 02:32:27;;;;;;;14.90;7.10;;;;;;;5.09;77.93;97609.13;5372595;26;20000;-79
2024/04/25 02:34:52;;;;;;;9.15;6.10;;;;;;;5.02;78.41;97597.94;5370829;26;20047;-78
2024/04/25 02:37:18;;;;;;;14.90;6.95;;;;;;;4.87;78.70;97598.50;5372555;26;20065;-79
2024/04/25 02:39:43;;;;;;;9.40;6.75;;;;;;;5.09;78.01;97604.66;5373610;26;20004;-77
2024/04/25 02:42:08;;;;;;;11.48;6.05;;;;;;;4.99;78.30;97596.59;5384762;26;20041;-79
2024/04/25 02:44:34;;;;;;;11.73;6.32;;;;;;;5.17;78.27;97606.91;5391090;26;20008;-79
2024/04/25 02:46:59;;;;;;;8.02;5.97;;;;;;;5.19;77.98;97604.81;5401801;26;20007;-80
2024/04/25 02:49:27;;;;;;;9.00;6.75;;;;;;;5.27;77.60;97607.00;5378568;26;20513;-80
2024/04/25 02:51:52;;;;;;;12.65;6.38;;;;;;;5.21;78.03;97601.91;5379728;26;20437;-79
2024/04/25 02:54:17;;;;;;;10.25;6.63;;;;;;;5.19;78.46;97604.00;5390404;26;20029;-78
2024/04/25 02:56:43;;;;;;;12.43;5.75;;;;;;;5.16;77.97;97601.81;5380377;26;20008;-79
2024/04/25 02:59:08;;;;;;;12.57;6.60;;;;;;;5.03;79.24;97599.53;5377229;26;20000;-79
2024/04/25 03:01:33;;;;;;;8.60;6.45;;;;;;;5.07;79.21;97596.16;5378104;26;20011;-80
2024/04/25 03:03:59;;;;;;;14.43;7.03;;;;;;;5.11;78.99;97599.13;5381040;26;20322;-80
2024/04/25 03:06:25;;;;;;;12.82;6.97;;;;;;;5.04;78.79;97594.03;5378522;26;20028;-79
2024/04/25 03:08:50;;;;;;;8.77;6.40;;;;;;;4.90;78.66;97579.53;5389773;26;19996;-79
2024/04/25 03:11:15;;;;;;;9.93;6.68;;;;;;;4.84;79.84;97598.22;5378193;26;20000;-81
2024/04/25 03:13:41;;;;;;;15.15;7.78;;;;;;;4.86;78.71;97593.47;5375279;26;20011;-80
2024/04/25 03:16:06;;;;;;;13.32;6.28;;;;;;;5.18;78.85;97602.38;5377404;26;20009;-80
2024/04/25 03:18:32;;;;;;;10.23;6.50;;;;;;;5.35;77.57;97592.56;5384882;26;20050;-78
2024/04/25 03:21:05;;;;;;;11.43;7.40;;;;;;;5.07;77.31;97590.88;5382234;26;19996;-80
2024/04/25 03:23:35;;;;;;;12.38;6.95;;;;;;;5.11;78.13;97594.63;5383056;26;19993;-80
2024/04/25 03:26:02;;;;;;;9.18;6.75;;;;;;;5.09;78.74;97594.06;5379198;26;20457;-80
2024/04/25 03:28:27;;;;;;;6.38;5.25;;;;;;;5.25;77.64;97603.81;5382805;26;20000;-79
2024/04/25 03:30:53;;;;;;;11.32;6.40;;;;;;;5.06;78.35;97601.69;5378762;26;20019;-77
2024/04/25 03:33:18;;;;;;;10.02;5.65;;;;;;;5.15;77.85;97618.75;5413667;21;20004;-73
2024/04/25 03:35:43;;;;;;;8.52;6.30;;;;;;;5.06;78.68;97612.28;5377014;26;20007;-73
2024/04/25 03:38:09;;;;;;;16.20;6.90;;;;;;;5.21;77.63;97615.13;5383704;26;20008;-72
2024/04/25 03:40:38;;;;;;;10.32;6.22;;;;;;;5.05;78.54;97616.75;5363221;26;19992;-73
2024/04/25 03:43:05;;;;;;;12.73;6.25;;;;;;;5.25;77.55;97618.88;5367061;26;20020;-71
2024/04/25 03:45:30;;;;;;;16.85;6.72;;;;;;;5.21;77.31;97618.59;5365854;26;20481;-73
2024/04/25 03:47:56;;;;;;;10.27;7.00;;;;;;;4.95;78.23;97624.56;5345718;26;19992;-72
2024/04/25 03:50:22;;;;;;;9.80;7.38;;;;;;;5.21;77.36;97618.59;5372230;26;20036;-73
2024/04/25 03:52:47;;;;;;;12.20;6.30;;;;;;;5.26;77.36;97621.28;5389511;26;20409;-74
2024/04/25 03:55:12;;;;;;;8.75;5.45;;;;;;;5.18;77.74;97627.00;5395010;26;20008;-73
2024/04/25 03:57:38;;;;;;;14.45;6.50;;;;;;;5.11;77.72;97623.72;5371728;26;19992;-73
2024/04/25 04:00:04;;;;;;;12.07;6.75;;;;;;;4.90;78.63;97621.03;5375579;26;20012;-75
2024/04/25 04:02:29;;;;;;;8.15;5.25;;;;;;;5.18;78.12;97629.63;5371991;26;19996;-73
2024/04/25 04:04:55;;;;;;;9.82;5.82;;;;;;;5.16;77.70;97625.63;5374238;26;20081;-73
2024/04/25 04:07:21;;;;;;;13.10;6.00;;;;;;;5.21;77.40;97625.72;5378916;26;20011;-73
2024/04/25 04:09:47;;;;;;;11.07;5.63;;;;;;;5.20;77.06;97627.53;5369035;26;20340;-73
2024/04/25 04:12:14;;;;;;;12.73;5.95;;;;;;;5.15;77.04;97613.47;5371067;26;20000;-73
2024/04/25 04:14:40;;;;;;;6.60;5.40;;;;;;;5.25;76.82;97626.81;5358931;26;20042;-73
2024/04/25 04:17:06;;;;;;;8.98;6.25;;;;;;;5.04;78.01;97624.94;5366757;26;19996;-73
2024/04/25 04:19:31;;;;;;;9.32;6.50;;;;;;;5.07;77.57;97627.09;5365434;26;20006;-73
2024/04/25 04:21:56;;;;;;;13.63;8.82;;;;;;;5.22;77.22;97627.31;5372132;26;20007;-73
2024/04/25 04:24:22;;;;;;;8.70;5.50;;;;;;;4.86;78.16;97631.28;5371517;26;19996;-73
2024/04/25 04:26:47;;;;;;;8.77;5.70;;;;;;;5.12;77.59;97632.44;5373191;26;20053;-73
2024/04/25 04:29:12;;;;;;;14.18;6.38;;;;;;;4.52;78.27;97619.13;5374746;26;19997;-74
2024/04/25 04:31:38;;;;;;;12.68;6.00;;;;;;;4.94;78.13;97636.16;5370666;26;20000;-73
2024/04/25 04:34:03;;;;;;;8.65;5.60;;;;;;;4.94;78.22;97638.81;5372184;26;20027;-73
2024/04/25 04:36:34;;;;;;;12.50;6.15;;;;;;;4.93;78.13;97642.50;5372568;26;20340;-73
2024/04/25 04:39:04;;;;;;;8.77;5.90;;;;;;;4.96;78.22;97643.84;5373646;26;20495;-73
2024/04/25 04:41:30;;;;;;;15.27;6.05;;;;;;;5.06;77.55;97644.81;5363054;26;20571;-73
2024/04/25 04:43:55;;;;;;;6.43;5.07;;;;;;;5.13;77.34;97642.00;5366278;26;20019;-73
2024/04/25 04:46:20;;;;;;;20.65;5.95;;;;;;;4.94;77.73;97654.66;5351601;26;20011;-73
2024/04/25 04:48:48;;;;;;;9.68;5.30;;;;;;;5.03;77.57;97653.22;5370717;26;20391;-73
2024/04/25 04:51:14;;;;;;;8.75;4.95;;;;;;;4.86;77.71;97644.50;5340862;26;20012;-75
2024/04/25 04:53:39;;;;;;;13.05;6.00;;;;;;;4.60;79.37;97654.91;5374959;26;20069;-74
2024/04/25 04:56:05;;;;;;;9.13;6.45;;;;;;;4.77;79.25;97645.94;5372218;26;20509;-73
2024/04/25 04:58:31;;;;;;;11.05;7.07;;;;;;;4.72;78.09;97645.84;5373829;26;20003;-73
2024/04/25 05:00:58;;;;;;;9.05;6.55;;;;;;;4.66;78.65;97640.72;5371070;26;20043;-73
2024/04/25 05:03:24;;;;;;;9.10;5.50;;;;;;;4.99;77.30;97628.31;5377156;26;20056;-73
2024/04/25 05:05:49;;;;;;;13.93;6.38;;;;;;;4.85;77.92;97657.97;5309328;26;20005;-74
2024/04/25 05:08:14;;;;;;;14.65;5.47;;;;;;;4.92;78.03;97662.03;5369239;26;20019;-73
2024/04/25 05:10:40;;;;;;;6.97;5.25;;;;;;;5.15;76.35;97658.44;5375143;26;20468;-74
2024/04/25 05:13:06;;;;;;;6.85;5.63;;;;;;;5.14;76.80;97654.16;5372958;26;19992;-74
2024/04/25 05:15:31;;;;;;;8.68;5.07;;;;;;;5.23;76.45;97663.28;5348443;26;20015;-73
2024/04/25 05:17:57;;;;;;;9.48;5.20;;;;;;;5.45;75.94;97664.13;5379476;26;19996;-73
2024/04/25 05:20:22;;;;;;;9.50;5.40;;;;;;;5.41;75.47;97655.09;5373122;26;20000;-73
2024/04/25 05:22:47;;;;;;;8.07;4.90;;;;;;;5.27;75.64;97672.34;5377067;26;20000;-74
2024/04/25 05:25:13;;;;;;;8.13;5.13;;;;;;;5.20;77.27;97672.50;5370967;26;20081;-73
2024/04/25 05:27:38;;;;;;;10.07;5.72;;;;;;;5.25;76.19;97666.50;5373570;26;20004;-74
2024/04/25 05:30:04;;;;;;;6.72;5.05;;;;;;;5.27;76.62;97673.16;5370470;26;20071;-74
2024/04/25 05:32:30;;;;;;;9.18;5.15;;;;;;;5.44;76.40;97672.31;5373765;26;20008;-73
2024/04/25 05:34:57;;;;;;;9.05;5.43;;;;;;;5.67;75.46;97672.09;5373721;26;20021;-73
2024/04/25 05:37:24;;;;;;;9.63;5.60;;;;;;;5.67;76.11;97667.59;5374913;26;20032;-73
2024/04/25 05:39:50;;;;;;;8.27;5.13;;;;;;;5.63;76.06;97661.19;5374314;26;19995;-73
2024/04/25 05:42:15;;;;;;;13.32;5.30;;;;;;;5.79;75.86;97667.47;5356972;26;20079;-73
2024/04/25 05:44:46;;;;;;;9.38;6.70;;;;;;;5.32;79.50;97675.06;5319916;26;20016;-73
2024/04/25 05:47:14;;;;;;;9.38;5.28;;;;;;;5.92;76.32;97659.97;5372885;26;20400;-73
2024/04/25 05:49:40;;;;;;;7.03;4.57;;;;;;;5.73;77.15;97671.91;5373548;26;20838;-73
2024/04/25 05:52:05;;;;;;;8.98;5.65;;;;;;;5.91;76.27;97679.59;5376547;26;20008;-73
2024/04/25 05:54:30;;;;;;;10.13;4.93;;;;;;;6.11;75.28;97671.06;5375606;26;20004;-73
2024/04/25 05:56:56;;;;;;;6.45;5.00;;;;;;;5.96;76.31;97678.84;5376818;26;19996;-73
2024/04/25 05:59:21;;;;;;;10.90;6.43;;;;;;;6.02;76.07;97673.34;5378027;26;20026;-74
2024/04/25 06:01:47;;;;;;;8.68;5.95;;;;;;;5.77;77.67;97675.66;5376217;26;20003;-73
2024/04/25 06:04:12;;;;;;;10.38;5.60;;;;;;;5.85;77.33;97685.06;5324617;26;20082;-73
2024/04/25 06:06:37;;;;;;;13.27;5.43;;;;;;;6.29;74.88;97675.22;5361517;26;20015;-73
2024/04/25 06:09:03;;;;;;;10.55;7.60;;;;;;;5.95;76.23;97677.22;5361115;26;20008;-73
2024/04/25 06:11:31;;;;;;;11.73;6.45;;;;;;;5.86;77.76;97682.16;5376702;26;19996;-73
2024/04/25 06:13:57;;;;;;;8.70;5.20;;;;;;;6.07;76.39;97673.38;5374566;26;20095;-73
2024/04/25 06:16:23;;;;;;;10.18;6.05;;;;;;;5.90;78.69;97674.50;5329247;26;20455;-74
2024/04/25 06:18:48;;;;;;;10.98;5.97;;;;;;;6.16;77.01;97686.22;5375693;26;20430;-73
2024/04/25 06:21:14;;;;;;;9.75;5.63;;;;;;;6.15;77.16;97685.41;5365234;26;20014;-73
2024/04/25 06:23:39;;;;;;;13.15;8.90;;;;;;;5.79;78.56;97688.63;5393288;26;19997;-74
2024/04/25 06:26:04;;;;;;;15.20;7.78;;;;;;;5.93;78.44;97696.03;5385481;26;20024;-74
2024/04/25 06:28:30;;;;;;;7.72;5.10;;;;;;;6.03;76.93;97676.78;5366583;26;19997;-73
2024/04/25 06:31:01;;;;;;;9.65;5.20;;;;;;;6.11;77.73;97684.31;5378215;26;20142;-73
2024/04/25 06:33:27;;;;;;;6.55;5.00;;;;;;;6.37;76.32;97688.81;5384434;26;20008;-74
2024/04/25 06:35:52;;;;;;;6.90;5.68;;;;;;;6.30;75.81;97692.72;5374817;26;20012;-74
2024/04/25 06:38:18;;;;;;;8.35;5.68;;;;;;;6.32;76.13;97686.13;5384893;26;20065;-74
2024/04/25 06:40:45;;;;;;;8.88;5.78;;;;;;;6.28;76.68;97689.50;5379673;26;20373;-74
2024/04/25 06:43:10;;;;;;;7.75;5.15;;;;;;;6.36;76.28;97683.75;5372496;26;20001;-72
2024/04/25 06:45:37;;;;;;;5.43;4.40;;;;;;;6.38;76.58;97686.97;5373807;26;20037;-72
2024/04/25 06:48:04;;;;;;;5.10;4.53;;;;;;;6.60;75.73;97690.34;5372834;26;20074;-72
2024/04/25 06:50:29;;;;;;;8.48;5.07;;;;;;;6.51;75.33;97671.47;5377489;26;20020;-73
2024/04/25 06:52:54;;;;;;;6.53;4.22;;;;;;;6.72;74.55;97675.91;5351091;26;20332;-72
2024/04/25 06:55:20;;;;;;;9.68;5.13;;;;;;;6.65;75.48;97679.81;5379548;26;20008;-73
2024/04/25 06:57:45;;;;;;;8.75;5.35;;;;;;;6.70;74.87;97674.56;5358940;26;20012;-73
2024/04/25 07:00:12;;;;;;;13.25;5.57;;;;;;;6.43;76.08;97671.13;5396537;26;20018;-73
2024/04/25 07:02:40;;;;;;;6.88;4.47;;;;;;;6.71;74.95;97676.16;5351596;26;20073;-73
2024/04/25 07:05:06;;;;;;;8.32;5.47;;;;;;;6.66;75.18;97670.81;5371825;26;20021;-72
2024/04/25 07:07:32;;;;;;;4.88;4.28;;;;;;;6.74;74.54;97676.47;5373621;26;20004;-73
2024/04/25 07:09:58;;;;;;;5.78;4.85;;;;;;;6.77;74.69;97675.16;5373946;26;20070;-72
2024/04/25 07:12:23;;;;;;;5.72;4.60;;;;;;;6.61;74.92;97673.41;5384913;26;20044;-73
2024/04/25 07:14:49;;;;;;;6.70;4.90;;;;;;;6.66;75.17;97689.38;5378951;26;20011;-72
2024/04/25 07:17:14;;;;;;;6.18;4.47;;;;;;;6.69;74.87;97688.84;5370621;26;19996;-73
2024/04/25 07:19:39;;;;;;;7.20;6.07;;;;;;;6.56;74.86;97674.16;5375105;26;20003;-73
2024/04/25 07:22:05;;;;;;;5.90;4.72;;;;;;;6.76;74.55;97692.09;5382849;26;20766;-73
2024/04/25 07:24:30;;;;;;;6.65;4.85;;;;;;;6.65;75.08;97687.75;5380055;26;20012;-73
2024/04/25 07:26:56;;;;;;;5.32;4.70;;;;;;;6.66;74.55;97692.03;5375770;26;20015;-73
2024/04/25 07:29:21;;;;;;;6.07;5.32;;;;;;;6.39;75.77;97677.97;5375903;26;19996;-73
2024/04/25 07:31:47;;;;;;;5.88;5.28;;;;;;;6.49;75.83;97684.16;5381968;26;20012;-73
2024/04/25 07:34:12;;;;;;;7.18;4.50;;;;;;;6.40;76.53;97690.97;5374642;26;20442;-73
2024/04/25 07:36:38;;;;;;;6.25;5.38;;;;;;;6.45;76.40;97696.31;5374040;26;20649;-73
2024/04/25 07:39:04;;;;;;;9.00;5.30;;;;;;;6.27;76.61;97691.34;5363003;26;20029;-73
2024/04/25 07:41:31;;;;;;;5.45;4.93;;;;;;;6.37;76.15;97698.63;5373684;26;20008;-73
2024/04/25 07:43:57;;;;;;;8.18;5.47;;;;;;;6.43;75.82;97706.38;5350419;26;20336;-72
2024/04/25 07:46:23;;;;;;;8.27;5.63;;;;;;;6.29;75.95;97680.53;5380873;26;20347;-73
2024/04/25 07:48:49;;;;;;;8.15;5.90;;;;;;;6.28;76.62;97705.41;5323884;26;20015;-73
2024/04/25 07:51:14;;;;;;;9.02;5.65;;;;;;;6.42;76.25;97698.69;5373649;26;20289;-72
2024/04/25 07:53:39;;;;;;;6.43;5.75;;;;;;;6.37;76.55;97704.72;5375634;26;20032;-73
2024/04/25 07:56:05;;;;;;;6.75;5.07;;;;;;;6.25;76.90;97697.94;5374899;26;20401;-73
2024/04/25 07:58:30;;;;;;;4.90;4.40;;;;;;;6.36;76.00;97700.47;5377352;26;20484;-73
2024/04/25 08:00:56;;;;;;;5.25;4.82;;;;;;;6.23;76.54;97706.16;5369031;26;19992;-73
2024/04/25 08:03:24;;;;;;;8.95;4.97;;;;;;;6.26;77.35;97710.16;5376040;26;20028;-72
2024/04/25 08:05:53;;;;;;;7.07;5.05;;;;;;;6.26;76.29;97702.22;5365724;26;19992;-73
2024/04/25 08:08:19;;;;;;;6.05;4.75;;;;;;;6.26;76.44;97705.66;5372266;26;19996;-73
2024/04/25 08:10:46;;;;;;;7.85;5.60;;;;;;;6.35;76.02;97713.97;5368084;26;20040;-73
2024/04/25 08:13:11;;;;;;;5.90;4.43;;;;;;;6.26;76.98;97696.91;5375646;26;19992;-73
2024/04/25 08:15:37;;;;;;;5.10;4.55;;;;;;;6.24;77.01;97696.34;5365849;26;20074;-73
2024/04/25 08:18:04;;;;;;;4.72;4.32;;;;;;;6.31;77.02;97713.66;5364806;26;20360;-73
2024/04/25 08:20:29;;;;;;;8.25;5.35;;;;;;;6.35;76.80;97713.97;5367325;26;20019;-73
2024/04/25 08:22:54;;;;;;;4.65;4.07;;;;;;;6.28;76.62;97711.50;5369189;26;19996;-73
2024/04/25 08:25:20;;;;;;;5.78;4.68;;;;;;;6.30;77.23;97703.31;5372154;26;20008;-73
2024/04/25 08:27:45;;;;;;;5.38;4.07;;;;;;;6.47;76.75;97714.63;5371832;26;19999;-73
2024/04/25 08:30:11;;;;;;;5.15;4.65;;;;;;;6.51;76.47;97719.16;5375540;26;20000;-72
2024/04/25 08:32:36;;;;;;;4.55;3.95;;;;;;;6.42;76.72;97719.88;5374617;26;20448;-73
2024/04/25 08:35:01;;;;;;;5.28;4.28;;;;;;;6.40;76.43;97719.34;5376344;26;19996;-73
2024/04/25 08:37:27;;;;;;;5.15;4.38;;;;;;;6.42;76.09;97722.53;5363372;26;20000;-73
2024/04/25 08:39:52;;;;;;;8.05;4.05;;;;;;;6.32;77.10;97727.72;5372975;26;20456;-73
2024/04/25 08:42:18;;;;;;;5.05;4.53;;;;;;;6.41;76.88;97724.38;5375033;26;20083;-73
2024/04/25 08:44:44;;;;;;;5.15;4.65;;;;;;;6.32;77.34;97715.25;5372142;26;19996;-73
2024/04/25 08:47:12;;;;;;;4.50;4.07;;;;;;;6.38;77.76;97727.50;5374126;26;20010;-73
2024/04/25 08:49:39;;;;;;;4.53;4.10;;;;;;;6.31;77.48;97731.41;5374639;26;20444;-73
2024/04/25 08:52:06;;;;;;;5.55;4.65;;;;;;;6.39;77.15;97736.28;5385969;26;20109;-73
2024/04/25 08:54:32;;;;;;;4.80;3.67;;;;;;;6.44;76.95;97731.84;5369761;26;20043;-73
2024/04/25 08:56:57;;;;;;;6.43;4.22;;;;;;;6.42;76.80;97727.84;5373289;26;20379;-73
2024/04/25 08:59:25;;;;;;;8.18;3.83;;;;;;;6.37;76.93;97730.41;5372638;26;20011;-73
2024/04/25 09:01:52;;;;;;;5.78;4.10;;;;;;;6.44;76.91;97725.72;5391470;26;20452;-73
2024/04/25 09:04:19;;;;;;;4.63;3.90;;;;;;;6.52;76.82;97734.03;5374991;26;20015;-73
2024/04/25 09:06:46;;;;;;;3.85;3.55;;;;;;;6.54;77.37;97728.47;5348662;26;19996;-73
2024/04/25 09:09:12;;;;;;;3.85;3.55;;;;;;;6.50;78.94;97740.63;5373128;26;20001;-73
2024/04/25 09:11:38;;;;;;;5.15;3.67;;;;;;;6.70;77.33;97728.41;5346458;26;19992;-72
2024/04/25 09:14:04;;;;;;;4.18;3.53;;;;;;;6.86;76.10;97736.50;5353491;26;20004;-73
2024/04/25 09:16:34;;;;;;;3.22;2.92;;;;;;;6.66;77.38;97743.19;5374724;26;19996;-72
2024/04/25 09:19:00;;;;;;;2.45;2.20;;;;;;;6.84;76.47;97743.91;5363752;26;20012;-73
2024/04/25 09:21:26;;;;;;;2.90;2.70;;;;;;;6.77;76.88;97725.53;5351068;26;20000;-72
2024/04/25 09:23:51;;;;;;;2.65;2.40;;;;;;;6.75;76.13;97738.22;5377599;26;20001;-73
2024/04/25 09:26:17;;;;;;;2.72;2.47;;;;;;;6.75;76.54;97732.91;5388589;26;19991;-73
2024/04/25 09:28:44;;;;;;;2.92;2.65;;;;;;;6.70;76.28;97724.94;5375499;26;20011;-73
2024/04/25 09:31:09;;;;;;;5.43;3.15;;;;;;;6.75;76.91;97738.22;5366690;26;20073;-73
2024/04/25 09:33:35;;;;;;;2.60;2.40;;;;;;;6.76;77.08;97748.59;5383451;26;20532;-73
2024/04/25 09:36:01;;;;;;;3.05;2.53;;;;;;;6.82;76.54;97746.78;5367778;26;20724;-74
2024/04/25 09:38:27;;;;;;;4.20;2.63;;;;;;;6.89;75.77;97744.72;5359171;26;20000;-73
2024/04/25 09:40:55;;;;;;;3.30;3.00;;;;;;;6.95;76.26;97751.69;5380450;26;20011;-73
2024/04/25 09:43:21;;;;;;;3.50;2.95;;;;;;;6.87;76.43;97746.84;5380008;26;20000;-73
2024/04/25 09:45:47;;;;;;;2.67;2.40;;;;;;;6.89;76.61;97744.72;5386692;26;19996;-74
2024/04/25 09:48:17;;;;;;;3.70;2.80;;;;;;;6.80;76.79;97746.22;5285847;26;20020;-75
2024/04/25 09:50:53;;;;;;;5.40;3.38;;;;;;;6.90;76.50;97737.59;5379172;26;20023;-73
2024/04/25 09:53:47;;;;;;;2.63;2.42;;;;;;;6.84;76.34;97744.69;5381478;26;19996;-73
2024/04/25 09:56:19;;;;;;;2.55;2.35;;;;;;;6.88;76.31;97751.06;5374172;26;20015;-74
2024/04/25 09:58:56;;;;;;;2.90;2.45;;;;;;;7.00;75.81;97754.38;5378456;26;20024;-73
2024/04/25 10:01:24;;;;;;;3.00;2.00;;;;;;;7.00;76.68;97748.28;5379173;26;20019;-74
2024/04/25 10:03:50;;;;;;;5.53;3.50;;;;;;;7.10;76.31;97743.06;5378439;26;20634;-73
2024/04/25 10:06:16;;;;;;;2.13;1.83;;;;;;;7.12;76.12;97748.91;5378920;26;20012;-73
2024/04/25 10:08:42;;;;;;;2.30;2.10;;;;;;;7.16;75.61;97745.50;5377929;26;19996;-73
2024/04/25 10:11:08;;;;;;;2.05;1.95;;;;;;;7.13;76.43;97742.53;5378885;26;20036;-72
2024/04/25 10:13:33;;;;;;;3.33;2.20;;;;;;;7.26;75.60;97747.44;5378622;26;20009;-72
2024/04/25 10:15:59;;;;;;;2.85;1.75;;;;;;;7.34;75.54;97744.28;5376450;26;20000;-73
2024/04/25 10:18:26;;;;;;;5.13;2.58;;;;;;;7.37;74.86;97738.47;5376850;26;20039;-73
2024/04/25 10:21:04;;;;;;;3.30;2.05;;;;;;;7.27;74.98;97741.06;5380623;26;20004;-73
2024/04/25 10:23:32;;;;;;;5.22;2.10;;;;;;;7.17;75.19;97739.13;5379190;26;20008;-73
2024/04/25 10:25:58;;;;;;;4.28;2.08;;;;;;;7.37;74.47;97741.13;5378788;26;20000;-73
2024/04/25 10:28:23;;;;;;;6.43;2.40;;;;;;;7.41;74.30;97742.22;5374308;26;20057;-73
2024/04/25 10:30:55;;;;;;;8.35;2.17;;;;;;;7.35;73.71;97729.97;5380945;26;19997;-73
2024/04/25 10:33:21;;;;;;;3.47;2.13;;;;;;;7.44;73.41;97739.88;5368689;26;20074;-73
2024/04/25 10:35:47;;;;;;;6.93;2.45;;;;;;;7.45;74.03;97735.34;5379121;26;20015;-73
2024/04/25 10:38:22;;;;;;;4.05;2.70;;;;;;;7.54;73.42;97739.94;5379903;26;20030;-73
2024/04/25 10:40:48;;;;;;;8.57;2.80;;;;;;;7.45;73.16;97738.00;5344058;26;20043;-72
2024/04/25 10:43:14;;;;;;;3.58;3.08;;;;;;;7.49;73.32;97736.47;5378285;26;20742;-73
2024/04/25 10:45:41;;;;;;;3.10;2.58;;;;;;;7.73;72.61;97731.56;5377656;26;19996;-73
2024/04/25 10:48:08;;;;;;;5.10;2.40;;;;;;;7.77;72.31;97727.31;5374704;26;19996;-73
2024/04/25 10:50:34;;;;;;;6.53;3.05;;;;;;;7.83;71.80;97735.06;5379016;26;20019;-73
2024/04/25 10:53:00;;;;;;;8.10;3.40;;;;;;;7.66;72.42;97723.00;5377825;26;20782;-73
2024/04/25 10:55:26;;;;;;;5.35;2.40;;;;;;;7.99;71.73;97726.13;5376252;26;20008;-73
2024/04/25 10:57:52;;;;;;;5.40;2.55;;;;;;;8.07;71.17;97722.16;5377460;26;20091;-72
2024/04/25 11:00:18;;;;;;;5.43;2.88;;;;;;;7.94;71.04;97707.50;5377826;26;20451;-72
2024/04/25 11:02:43;;;;;;;3.83;3.42;;;;;;;8.09;70.81;97709.41;5377423;26;20317;-73
2024/04/25 11:05:08;;;;;;;4.78;3.30;;;;;;;8.18;70.05;97724.59;5374843;26;19992;-72
2024/04/25 11:07:36;;;;;;;5.20;2.55;;;;;;;8.35;70.14;97716.44;5383032;26;20328;-73
2024/04/25 11:10:02;;;;;;;7.05;2.90;;;;;;;8.40;69.64;97710.34;5376905;26;20004;-73
2024/04/25 11:12:28;;;;;;;8.68;2.72;;;;;;;8.55;69.19;97711.16;5377249;26;20006;-73
2024/04/25 11:14:53;;;;;;;5.45;2.80;;;;;;;8.50;69.23;97692.53;5377596;26;20000;-73
2024/04/25 11:17:18;;;;;;;13.55;3.25;;;;;;;8.82;70.07;97687.00;5375456;26;20004;-72
2024/04/25 11:19:45;;;;;;;6.82;2.47;;;;;;;9.18;67.96;97701.09;5377297;26;20360;-74
2024/04/25 11:22:10;;;;;;;3.72;2.22;;;;;;;9.29;68.26;97698.16;5377289;26;20007;-73
2024/04/25 11:24:36;;;;;;;8.57;2.78;;;;;;;9.29;68.25;97703.50;5375615;26;20000;-73
2024/04/25 11:27:02;;;;;;;4.82;1.90;;;;;;;9.36;66.75;97701.38;5386508;26;20001;-73
2024/04/25 11:29:28;;;;;;;5.95;3.03;;;;;;;9.48;66.14;97687.78;5377936;26;20325;-73
2024/04/25 11:31:53;;;;;;;5.03;3.17;;;;;;;9.57;66.06;97700.25;5376278;26;20480;-73
2024/04/25 11:34:21;;;;;;;8.55;2.80;;;;;;;9.49;65.85;97694.69;5376449;26;20015;-72
2024/04/25 11:37:04;;;;;;;9.32;3.45;;;;;;;9.44;65.99;97689.34;5377382;26;19996;-73
2024/04/25 11:39:31;;;;;;;7.60;2.58;;;;;;;9.94;65.26;97694.53;5376643;26;20332;-73